Flight Track Log - Related Links

Times and Time Zones

All times are in EDT time to prevent confusion due to time zone crossing. See the UAL4663 flight status page for this flight to view local times or setup timezone preferences in your user account.

Time Position Orientation Groundspeed Altitude Reporting Facility
EDT Latitude Longitude Course Direction KTS MPH feet Rate Location/Type
Sun 08:25:17 PM 35.8414 -78.8975 250° West 218 251 4,500  Level Washington Center
Sun 08:26:00 PM 36.1195 -78.6833 North  Level FlightAware Approximate
Sun 08:26:25 PM 35.8664 -78.9703 293° West 229 264 7,100  Level Washington Center
Sun 08:27:00 PM 36.2045 -78.6528 19° North  Level FlightAware Approximate
Sun 08:27:25 PM 35.9369 -78.9861 350° North 216 249 8,900  Level Washington Center
Sun 08:28:00 PM 36.2896 -78.6201 15° North  Level FlightAware Approximate
Sun 08:28:25 PM 36.0053 -78.9247 36° Northeast 218 251 10,400  Level Washington Center
Sun 08:29:00 PM 36.3761 -78.5935 11° North  Level FlightAware Approximate
Sun 08:29:25 PM 36.0844 -78.8614 33° Northeast 273 314 11,700  Level Washington Center
Sun 08:30:25 PM 36.1694 -78.7981 31° Northeast 326 375 13,200 1,400 Climbing Washington Center
Sun 08:31:25 PM 36.2567 -78.7344 30° Northeast 362 417 14,500 1,150 Climbing Washington Center
Sun 08:32:25 PM 36.3375 -78.6811 28° Northeast 368 423 15,500 1,050 Climbing Washington Center
Sun 08:33:25 PM 36.4414 -78.6103 29° Northeast 368 423 16,600 1,050 Climbing Washington Center
Sun 08:34:25 PM 36.5392 -78.5392 30° Northeast 381 438 17,600 950 Climbing Washington Center
Sun 08:35:25 PM 36.6369 -78.4703 29° Northeast 391 450 18,500 900 Climbing Washington Center
Sun 08:36:25 PM 36.7239 -78.4036 32° Northeast 397 457 19,400 950 Climbing Washington Center
Sun 08:37:25 PM 36.8300 -78.3347 27° Northeast 409 471 20,400 1,050 Climbing Washington Center
Sun 08:38:25 PM 36.9339 -78.2578 31° Northeast 421 484 21,500 1,100 Climbing Washington Center
Sun 08:39:25 PM 37.0525 -78.1736 30° Northeast 433 498 22,600 1,000 Climbing Washington Center
Sun 08:40:25 PM 37.1458 -78.1036 31° Northeast 433 498 23,500 950 Climbing Washington Center
Sun 08:41:25 PM 37.2558 -78.0264 29° Northeast 433 498 24,500 1,000 Climbing Washington Center
Sun 08:42:25 PM 37.3658 -77.9461 30° Northeast 439 505 25,500 1,000 Climbing Washington Center
Sun 08:43:25 PM 37.4739 -77.8686 30° Northeast 446 513 26,500 750 Climbing Washington Center
Sun 08:44:25 PM 37.5819 -77.7800 33° Northeast 451 519 27,000 250 Climbing Washington Center
Sun 08:45:25 PM 37.6878 -77.6833 36° Northeast 462 532 27,000  Level Washington Center
Sun 08:46:25 PM 37.7981 -77.5839 35° Northeast 477 549 27,000  Level Washington Center
Sun 08:47:25 PM 37.9081 -77.4814 36° Northeast 483 556 27,000  Level Washington Center
Sun 08:48:25 PM 38.0203 -77.3789 36° Northeast 483 556 27,000  Level Washington Center
Sun 08:49:25 PM 38.1344 -77.2758 35° Northeast 488 562 27,000  Level Washington Center
Sun 08:50:25 PM 38.2483 -77.1728 35° Northeast 494 568 27,000  Level Washington Center
Sun 08:51:25 PM 38.3603 -77.0692 36° Northeast 494 568 27,000  Level Washington Center
Sun 08:52:25 PM 38.4739 -76.9653 36° Northeast 500 575 27,000  Level Washington Center
Sun 08:53:25 PM 38.5878 -76.8586 36° Northeast 500 575 27,000  Level Washington Center
Sun 08:54:25 PM 38.6972 -76.7514 37° Northeast 494 568 27,000  Level Washington Center
Sun 08:55:25 PM 38.8025 -76.6358 41° Northeast 494 568 27,000  Level Washington Center
Sun 08:56:25 PM 38.9056 -76.5144 42° Northeast 494 568 27,000  Level Washington Center
Sun 08:57:25 PM 39.0086 -76.3983 41° Northeast 494 568 27,000  Level Washington Center
Sun 08:58:25 PM 39.1136 -76.2764 42° Northeast 494 568 27,000  Level Washington Center
Sun 08:59:25 PM 39.2267 -76.1436 42° Northeast 499 574 27,000  Level Washington Center
Sun 09:00:25 PM 39.3314 -76.0208 42° Northeast 499 574 27,000 -400 Level Washington Center
Sun 09:01:25 PM 39.4319 -75.9006 43° Northeast 494 568 26,200 -1,200 Descending Washington Center
Sun 09:02:25 PM 39.5342 -75.7825 42° Northeast 494 568 24,600 -1,900 Descending Washington Center
Sun 09:03:25 PM 39.6281 -75.6722 42° Northeast 481 554 22,400 -2,350 Descending Washington Center
Sun 09:04:25 PM 39.7219 -75.5592 43° Northeast 468 539 19,900 -2,250 Descending Washington Center
Sun 09:05:25 PM 39.8011 -75.4619 43° Northeast 454 522 17,900 -2,000 Descending Washington Center
Sun 09:06:25 PM 39.8842 -75.3617 43° Northeast 424 488 15,900 -2,000 Descending Washington Center
Sun 09:07:25 PM 39.9631 -75.2667 43° Northeast 398 458 13,900 -1,800 Descending Washington Center
Sun 09:08:25 PM 40.0400 -75.1714 43° Northeast 386 444 12,300 -1,450 Descending Washington Center
Sun 09:09:25 PM 40.1144 -75.0789 44° Northeast 374 430 11,000 -1,050 Descending Washington Center
Sun 09:10:25 PM 40.1808 -74.9969 43° Northeast 348 400 10,200 -1,200 Descending Washington Center
Sun 09:11:05 PM 40.2333 -74.9500 34° Northeast 294 338 9,000 -1,260 Descending New York TRACON
Sun 09:12:05 PM 40.2833 -74.8667 52° Northeast 282 325 8,100 -483 Descending New York TRACON
Sun 09:13:59 PM 40.3333 -74.6833 70° East 311 358 7,600 -586 Descending New York TRACON
Sun 09:14:59 PM 40.3500 -74.5667 79° East 289 333 6,400 -1,095 Descending New York TRACON
Sun 09:16:05 PM 40.3667 -74.4667 78° East 276 318 5,300 -950 Descending New York TRACON
Sun 09:16:59 PM 40.3833 -74.3833 75° East 271 312 4,500 -842 Descending New York TRACON
Sun 09:17:59 PM 40.4333 -74.3333 37° Northeast 257 296 3,700 -619 Descending New York TRACON
Sun 09:19:05 PM 40.5000 -74.2833 30° Northeast 208 239 3,200 -286 Descending New York TRACON
Sun 09:20:05 PM 40.5500 -74.2667 14° North 187 215 3,100 -526 Descending New York TRACON
Sun 09:20:59 PM 40.5833 -74.2333 37° Northeast 183 211 2,200 -1,000 Descending New York TRACON

Login

Don't have an account? Register now (free) for customized features, flight alerts, and more!